Perg, Austria
Current Conditions -  °F | °C
As of 4:50 AM on Thursday 23 Oct 2014 (Local Time) from LOWL Reporting Station
Moderate Rain Moderate Rain  
Wind Chill: 39°   Ceiling: 1200
Heat Index: 45°   Visibility: 6mi
Dew Point: 45°   Wind: 10mph
Humidity: 100%   Direction: 270°W
Pressure: 29.8"   Gusts: NA
Location:  48.25°N, 14.62°E
Report Text: LOWL 230250Z 27009KT 230V290 9999 RA FEW005 BKN012 BKN270 07/07 Q1009 TEMPO SCT012 BKN027
Loading
Personal Weather Stations






























Interactive Weather Map
Tropical Storm Tracking
New forecast layout! Learn more

10-Day Weather Forecast

Advertisements
Track Severe Weather on mobile